< < Back
Terminal Aerodrome Forecast


Current Version              Previous Versions:   1  2  3  4  5  6  7  8  9  

Terminal Aerodrome Forecast

817
FTUS42 KFFC 182300
TAFPDK
TAF
KPDK 182327Z 1900/1924 05007KT 4SM SHRA BR BKN020 OVC060
      TEMPO 1900/1902 SCT020 OVC060
     FM190500 04012G20KT 4SM SHRA BR OVC009
     FM190800 04014G24KT 6SM -SHRA OVC009
     FM191200 03014G24KT 6SM -RA BKN018
     FM191900 04011G20KT P6SM BKN025=

Latest METAR

567
SAUS70 KWBC 182300 RRA
MTRPDK
METAR KPDK 182253Z 03005KT 4SM -RA BR BKN080 OVC095 09/08 A3015 RMK AO2
SLP211 P0009 T00940078


USA.gov is the U.S. government's official web portal to all federal, state and local government web resources and services.